Terminal Aerodrome Forecast
Issued by NWS

Home | Current Version | Previous Version | Graphics & Text | Print | Product List | Glossary On
Versions: 1 2 3 4 5 6 7 8 9 10 11 12 13 14 15 16 17 18 19 20 21 22
000
FTUS43 KMPX 270225 AAA
TAFRWF
TAF AMD
KRWF 270225Z 2702/2724 09011KT P6SM OVC019
     FM271000 09015G22KT P6SM VCSH BKN030 OVC050
     FM271600 08018G26KT 3SM RA BR OVC015=

USA.gov is the U.S. government's official web portal to all federal, state and local government web resources and services.